Time;durP1;ratioP1;P1;durP2;ratioP2;P2;SDS_P1;SDS_P2;PMS_P1;PMS_P2;Temp;Humidity;BMP_temperature;BMP_pressure;BME280_temperature;BME280_humidity;BME280_pressure;Samples;Min_cycle;Max_cycle;Signal;HPM_P1;HPM_P2
2023/04/21 00:02:00;;;;;;;;;;;;;;;12.91;74.97;99206.78;5093336;28;19912;-37
2023/04/21 00:04:26;;;;;;;;;;;;;;;13.03;74.35;99205.97;5093323;28;20444;-37
2023/04/21 00:06:52;;;;;;;;;;;;;;;13.00;73.54;99203.75;5092981;28;20457;-36
2023/04/21 00:09:17;;;;;;;;;;;;;;;12.91;74.06;99197.97;5093091;28;19974;-37
2023/04/21 00:11:42;;;;;;;;;;;;;;;12.79;75.01;99195.28;5093155;28;20398;-42
2023/04/21 00:14:08;;;;;;;;;;;;;;;12.76;75.90;99197.63;5093176;28;19912;-42
2023/04/21 00:16:33;;;;;;;;;;;;;;;13.13;74.21;99195.50;5093118;28;20362;-43
2023/04/21 00:18:58;;;;;;;;;;;;;;;12.72;75.78;99197.25;5093437;28;19995;-43
2023/04/21 00:21:24;;;;;;;;;;;;;;;12.45;77.20;99202.19;5092915;28;19912;-43
2023/04/21 00:23:49;;;;;;;;;;;;;;;12.39;77.56;99203.09;5093189;28;20421;-42
2023/04/21 00:26:15;;;;;;;;;;;;;;;12.36;78.53;99200.91;5092452;28;20280;-41
2023/04/21 00:28:40;;;;;;;;;;;;;;;12.20;78.87;99194.34;5092959;28;19966;-42
2023/04/21 00:31:05;;;;;;;;;;;;;;;12.16;79.11;99191.31;5092633;28;19915;-43
2023/04/21 00:33:30;;;;;;;;;;;;;;;12.00;80.26;99186.66;5092684;28;20352;-43
2023/04/21 00:35:57;;;;;;;;;;;;;;;12.26;79.09;99194.28;5092669;28;20004;-42
2023/04/21 00:38:23;;;;;;;;;;;;;;;12.42;78.56;99190.13;5092153;28;19912;-43
2023/04/21 00:40:48;;;;;;;;;;;;;;;12.31;79.27;99190.91;5092891;28;20230;-42
2023/04/21 00:43:13;;;;;;;;;;;;;;;12.33;79.18;99194.97;5092636;28;19919;-42
2023/04/21 00:45:39;;;;;;;;;;;;;;;12.41;79.27;99193.00;5092622;28;19912;-43
2023/04/21 00:48:05;;;;;;;;;;;;;;;12.42;79.08;99192.78;5092387;28;20299;-43
2023/04/21 00:50:31;;;;;;;;;;;;;;;12.54;79.48;99189.34;5092701;28;19933;-42
2023/04/21 00:52:56;;;;;;;;;;;;;;;12.13;82.73;99186.47;5092441;28;19912;-41
2023/04/21 00:55:22;;;;;;;;;;;;;;;12.06;83.80;99189.19;5092481;28;19912;-41
2023/04/21 00:57:47;;;;;;;;;;;;;;;11.71;86.30;99187.19;5091962;28;19920;-42
2023/04/21 01:00:13;;;;;;;;;;;;;;;11.73;86.04;99184.28;5092344;28;20312;-41
2023/04/21 01:02:39;;;;;;;;;;;;;;;11.49;87.81;99180.69;5092293;28;19912;-42
2023/04/21 01:05:06;;;;;;;;;;;;;;;11.72;87.56;99183.47;5091709;28;20329;-42
2023/04/21 01:07:31;;;;;;;;;;;;;;;11.54;87.33;99173.66;5091240;28;19919;-41
2023/04/21 01:09:56;;;;;;;;;;;;;;;11.71;87.22;99178.38;5091329;28;19916;-41
2023/04/21 01:12:22;;;;;;;;;;;;;;;11.71;86.70;99175.72;5091549;28;19961;-42
2023/04/21 01:14:47;;;;;;;;;;;;;;;11.74;87.09;99181.38;5091277;28;19959;-41
2023/04/21 01:17:12;;;;;;;;;;;;;;;11.79;87.29;99177.25;5091315;28;19912;-41
2023/04/21 01:19:40;;;;;;;;;;;;;;;11.33;88.78;99177.59;5091334;28;19919;-41
2023/04/21 01:22:09;;;;;;;;;;;;;;;11.36;89.75;99178.97;5091011;28;19918;-42
2023/04/21 01:24:39;;;;;;;;;;;;;;;11.37;89.20;99185.94;5091420;28;19923;-43
2023/04/21 01:27:15;;;;;;;;;;;;;;;11.33;89.07;99185.56;5091066;28;19931;-42
2023/04/21 01:29:41;;;;;;;;;;;;;;;11.33;89.24;99177.59;5091214;28;20259;-42
2023/04/21 01:32:10;;;;;;;;;;;;;;;11.14;91.65;99175.94;5091196;28;19912;-42
2023/04/21 01:34:36;;;;;;;;;;;;;;;11.69;88.89;99178.59;5090958;28;19916;-43
2023/04/21 01:37:01;;;;;;;;;;;;;;;11.89;87.81;99180.19;5091097;28;19919;-42
2023/04/21 01:39:27;;;;;;;;;;;;;;;11.74;86.75;99173.38;5090908;28;20210;-43
2023/04/21 01:41:54;;;;;;;;;;;;;;;11.82;86.79;99174.13;5091075;28;19969;-43
2023/04/21 01:44:19;;;;;;;;;;;;;;;11.67;87.17;99174.50;5091838;28;19912;-42
2023/04/21 01:46:45;;;;;;;;;;;;;;;11.78;85.55;99183.63;5091558;28;19931;-43
2023/04/21 01:49:10;;;;;;;;;;;;;;;11.58;87.42;99174.03;5091400;28;19953;-43
2023/04/21 01:51:35;;;;;;;;;;;;;;;11.72;86.57;99175.47;5091605;28;19939;-43
2023/04/21 01:54:01;;;;;;;;;;;;;;;11.84;85.99;99172.03;5091572;28;19920;-43
2023/04/21 01:56:26;;;;;;;;;;;;;;;11.86;85.31;99175.28;5091456;28;20356;-43
2023/04/21 01:58:52;;;;;;;;;;;;;;;11.70;86.16;99174.88;5091456;28;20046;-42
2023/04/21 02:01:17;;;;;;;;;;;;;;;11.80;86.94;99179.66;5091576;28;19916;-42
2023/04/21 02:03:42;;;;;;;;;;;;;;;11.69;87.26;99183.94;5091066;28;20292;-42
2023/04/21 02:06:08;;;;;;;;;;;;;;;11.74;86.94;99184.03;5091381;28;20048;-43
2023/04/21 02:08:33;;;;;;;;;;;;;;;11.72;87.12;99191.47;5090389;28;19916;-42
2023/04/21 02:11:00;;;;;;;;;;;;;;;11.79;86.58;99193.25;5091090;28;20402;-43
2023/04/21 02:13:25;;;;;;;;;;;;;;;11.58;87.76;99192.66;5091378;28;20006;-42
2023/04/21 02:15:51;;;;;;;;;;;;;;;11.31;88.62;99189.50;5091075;28;19947;-43
2023/04/21 02:18:16;;;;;;;;;;;;;;;11.44;88.25;99193.84;5091005;28;20010;-43
2023/04/21 02:20:41;;;;;;;;;;;;;;;11.43;87.49;99197.56;5091214;28;19912;-43
2023/04/21 02:23:07;;;;;;;;;;;;;;;11.33;88.06;99188.22;5090974;28;19998;-43
2023/04/21 02:25:32;;;;;;;;;;;;;;;11.50;87.13;99185.00;5090760;28;20307;-41
2023/04/21 02:27:57;;;;;;;;;;;;;;;11.52;86.46;99182.91;5090974;28;19916;-43
2023/04/21 02:30:23;;;;;;;;;;;;;;;11.39;86.80;99189.19;5091024;28;19912;-42
2023/04/21 02:32:48;;;;;;;;;;;;;;;11.49;86.71;99180.69;5091126;28;20411;-42
2023/04/21 02:35:13;;;;;;;;;;;;;;;11.53;86.54;99177.34;5090874;28;19941;-43
2023/04/21 02:37:38;;;;;;;;;;;;;;;11.54;85.72;99178.97;5090978;28;19912;-42
2023/04/21 02:40:05;;;;;;;;;;;;;;;11.52;86.40;99178.38;5090902;28;19961;-43
2023/04/21 02:42:31;;;;;;;;;;;;;;;11.25;87.07;99166.41;5090977;28;19923;-42
2023/04/21 02:44:56;;;;;;;;;;;;;;;11.29;86.09;99176.41;5091101;28;20336;-43
2023/04/21 02:47:22;;;;;;;;;;;;;;;11.23;86.19;99171.13;5091124;28;19919;-43
2023/04/21 02:49:47;;;;;;;;;;;;;;;11.20;86.48;99175.06;5091047;28;19920;-43
2023/04/21 02:52:12;;;;;;;;;;;;;;;11.19;86.01;99169.94;5090740;28;19985;-43
2023/04/21 02:54:38;;;;;;;;;;;;;;;11.31;85.56;99166.34;5090505;28;19912;-43
2023/04/21 02:57:03;;;;;;;;;;;;;;;11.14;87.58;99168.78;5090658;28;19916;-43
2023/04/21 02:59:28;;;;;;;;;;;;;;;11.06;86.90;99171.72;5091063;28;19935;-43
2023/04/21 03:01:53;;;;;;;;;;;;;;;11.18;86.09;99169.16;5090708;28;19912;-42
2023/04/21 03:04:19;;;;;;;;;;;;;;;11.03;85.60;99177.47;5090931;28;19969;-42
2023/04/21 03:06:44;;;;;;;;;;;;;;;10.93;86.01;99178.00;5089599;28;19912;-41
2023/04/21 03:09:09;;;;;;;;;;;;;;;10.87;86.78;99173.56;5090614;28;20289;-42
2023/04/21 03:11:35;;;;;;;;;;;;;;;10.89;86.50;99173.31;5090667;28;19912;-43
2023/04/21 03:14:00;;;;;;;;;;;;;;;10.71;86.47;99174.91;5090944;28;20405;-43
2023/04/21 03:16:26;;;;;;;;;;;;;;;10.76;86.07;99176.94;5090828;28;19919;-41
2023/04/21 03:18:52;;;;;;;;;;;;;;;10.39;87.84;99178.66;5090190;28;20005;-43
2023/04/21 03:21:17;;;;;;;;;;;;;;;10.02;90.27;99178.47;5094399;28;19970;-43
2023/04/21 03:23:43;;;;;;;;;;;;;;;10.00;90.32;99183.19;5094262;28;19981;-43
2023/04/21 03:26:08;;;;;;;;;;;;;;;10.22;89.39;99191.63;5094273;28;19931;-42
2023/04/21 03:28:33;;;;;;;;;;;;;;;10.39;87.82;99187.44;5094112;28;19934;-43
2023/04/21 03:30:59;;;;;;;;;;;;;;;10.40;88.55;99190.94;5093857;28;20015;-44
2023/04/21 03:33:24;;;;;;;;;;;;;;;10.44;87.37;99187.59;5093960;28;19919;-43
2023/04/21 03:35:49;;;;;;;;;;;;;;;10.59;87.63;99184.63;5094127;28;19919;-43
2023/04/21 03:38:15;;;;;;;;;;;;;;;10.43;88.06;99193.13;5094257;28;19912;-43
2023/04/21 03:40:40;;;;;;;;;;;;;;;10.64;87.04;99191.97;5092610;28;20383;-43
2023/04/21 03:43:05;;;;;;;;;;;;;;;10.69;86.59;99200.91;5093514;28;19919;-43
2023/04/21 03:45:31;;;;;;;;;;;;;;;10.74;85.50;99208.28;5089400;28;20364;-43
2023/04/21 03:47:56;;;;;;;;;;;;;;;10.75;86.64;99204.56;5093316;28;20391;-42
2023/04/21 03:50:22;;;;;;;;;;;;;;;10.83;85.45;99208.78;5093344;28;19995;-44
2023/04/21 03:52:47;;;;;;;;;;;;;;;10.71;86.02;99206.84;5092842;28;20289;-36
2023/04/21 03:55:12;;;;;;;;;;;;;;;11.01;83.89;99195.53;5093659;28;20015;-36
2023/04/21 03:57:39;;;;;;;;;;;;;;;11.64;83.26;99199.75;5093807;28;19919;-36
2023/04/21 04:00:05;;;;;;;;;;;;;;;12.39;78.45;99203.09;5093465;28;19912;-36
2023/04/21 04:02:30;;;;;;;;;;;;;;;12.73;76.80;99204.22;5092796;28;19939;-43
2023/04/21 04:04:56;;;;;;;;;;;;;;;13.19;74.71;99207.94;5093235;28;20018;-43
2023/04/21 04:07:22;;;;;;;;;;;;;;;13.63;73.88;99216.41;5093244;28;20054;-44
2023/04/21 04:09:47;;;;;;;;;;;;;;;13.87;72.23;99210.97;5093159;28;19981;-44
2023/04/21 04:12:12;;;;;;;;;;;;;;;14.08;70.48;99204.94;5093428;28;20352;-37
2023/04/21 04:14:38;;;;;;;;;;;;;;;14.23;70.09;99208.97;5092924;28;19931;-37
2023/04/21 04:17:03;;;;;;;;;;;;;;;14.35;69.80;99208.91;5092881;28;20431;-37
2023/04/21 04:19:30;;;;;;;;;;;;;;;14.54;68.50;99206.81;5093283;28;19916;-37
2023/04/21 04:21:56;;;;;;;;;;;;;;;14.81;67.12;99204.34;5092967;28;20005;-37
2023/04/21 04:24:22;;;;;;;;;;;;;;;15.08;66.97;99200.97;5092723;28;20014;-37
2023/04/21 04:26:47;;;;;;;;;;;;;;;15.23;66.14;99210.06;5092755;28;20424;-38
2023/04/21 04:29:12;;;;;;;;;;;;;;;15.53;65.68;99213.41;5093040;28;19916;-38
2023/04/21 04:31:38;;;;;;;;;;;;;;;15.60;64.58;99222.88;5091685;28;19920;-38
2023/04/21 04:34:03;;;;;;;;;;;;;;;16.12;63.95;99220.81;5092662;28;19916;-44
2023/04/21 04:36:29;;;;;;;;;;;;;;;16.51;62.01;99215.28;5091253;28;19916;-37
2023/04/21 04:38:55;;;;;;;;;;;;;;;16.45;61.97;99222.50;5092130;28;19912;-37
2023/04/21 04:41:21;;;;;;;;;;;;;;;16.49;62.66;99220.13;5092542;28;19912;-38
2023/04/21 04:43:47;;;;;;;;;;;;;;;16.50;61.45;99224.41;5089292;28;19916;-37
2023/04/21 04:46:12;;;;;;;;;;;;;;;16.37;60.86;99226.44;5092702;28;19919;-36
2023/04/21 04:48:37;;;;;;;;;;;;;;;16.85;59.84;99229.31;5092105;28;20340;-36
2023/04/21 04:51:03;;;;;;;;;;;;;;;16.88;59.34;99233.34;5073729;28;20396;-37
2023/04/21 04:53:29;;;;;;;;;;;;;;;17.03;59.03;99230.78;5082667;28;20398;-37
2023/04/21 04:55:54;;;;;;;;;;;;;;;17.49;57.75;99246.38;5088499;28;19920;-36
2023/04/21 04:58:21;;;;;;;;;;;;;;;17.89;56.14;99237.69;5090650;28;20047;-36
2023/04/21 05:00:46;;;;;;;;;;;;;;;18.40;55.20;99233.53;5090584;28;19912;-37
2023/04/21 05:03:11;;;;;;;;;;;;;;;18.83;54.12;99237.63;5090698;28;20354;-38
2023/04/21 05:05:36;;;;;;;;;;;;;;;19.51;52.01;99239.13;5085725;28;19917;-36
2023/04/21 05:08:02;;;;;;;;;;;;;;;19.96;50.18;99233.88;5071421;28;19916;-37
2023/04/21 05:10:27;;;;;;;;;;;;;;;20.35;49.44;99239.28;5071794;28;19966;-42
2023/04/21 05:12:52;;;;;;;;;;;;;;;20.62;48.01;99238.88;5083682;28;19962;-41
2023/04/21 05:15:18;;;;;;;;;;;;;;;20.73;47.00;99238.78;5094654;28;20023;-36
2023/04/21 05:17:43;;;;;;;;;;;;;;;20.60;47.12;99241.06;5090847;28;20396;-36
2023/04/21 05:20:08;;;;;;;;;;;;;;;20.39;46.43;99242.25;5090683;28;19924;-37
2023/04/21 05:22:37;;;;;;;;;;;;;;;20.98;45.85;99235.88;5091451;28;19919;-36
2023/04/21 05:25:02;;;;;;;;;;;;;;;21.42;44.50;99236.81;5090864;28;19912;-41
2023/04/21 05:27:28;;;;;;;;;;;;;;;21.86;42.79;99235.78;5088416;28;19927;-42
2023/04/21 05:29:54;;;;;;;;;;;;;;;21.48;43.08;99224.84;5089748;28;20448;-41
2023/04/21 05:32:21;;;;;;;;;;;;;;;21.00;43.14;99230.16;5090642;28;20306;-41
2023/04/21 05:34:46;;;;;;;;;;;;;;;21.45;42.81;99237.03;5091758;28;19911;-36
2023/04/21 05:37:12;;;;;;;;;;;;;;;21.97;41.25;99234.53;5092013;28;20256;-36
2023/04/21 05:39:37;;;;;;;;;;;;;;;21.60;41.03;99237.97;5106532;28;20355;-41
2023/04/21 05:42:03;;;;;;;;;;;;;;;21.48;41.41;99232.97;5098271;28;19946;-42
2023/04/21 05:44:28;;;;;;;;;;;;;;;21.48;41.80;99227.56;5099500;28;19923;-36
2023/04/21 05:46:53;;;;;;;;;;;;;;;21.51;41.47;99224.25;5106033;28;19927;-41
2023/04/21 05:49:19;;;;;;;;;;;;;;;22.32;40.33;99220.81;5093113;28;19916;-42
2023/04/21 05:51:44;;;;;;;;;;;;;;;22.38;40.23;99219.63;5090708;28;19920;-37
2023/04/21 05:54:09;;;;;;;;;;;;;;;21.89;40.70;99218.13;5099754;28;19911;-37
2023/04/21 05:56:35;;;;;;;;;;;;;;;21.58;40.60;99223.94;5098668;28;19984;-36
2023/04/21 05:59:00;;;;;;;;;;;;;;;22.34;39.34;99215.91;5106603;28;20394;-37
2023/04/21 06:01:25;;;;;;;;;;;;;;;22.25;39.03;99215.75;5094434;28;19935;-42
2023/04/21 06:03:51;;;;;;;;;;;;;;;22.35;39.35;99193.94;5104871;28;19912;-42
2023/04/21 06:06:16;;;;;;;;;;;;;;;23.05;37.98;99207.72;5100637;28;20310;-37
2023/04/21 06:08:41;;;;;;;;;;;;;;;21.85;39.51;99209.78;5097247;28;20451;-37
2023/04/21 06:11:07;;;;;;;;;;;;;;;22.76;38.63;99206.81;5107557;28;20010;-37
2023/04/21 06:13:32;;;;;;;;;;;;;;;23.12;36.87;99202.72;5094455;28;20441;-36
2023/04/21 06:15:57;;;;;;;;;;;;;;;22.21;38.65;99215.50;5103424;28;19951;-37
2023/04/21 06:18:23;;;;;;;;;;;;;;;22.50;38.05;99209.13;5101249;28;19912;-41
2023/04/21 06:20:49;;;;;;;;;;;;;;;22.86;37.07;99205.81;5105307;28;20385;-41
2023/04/21 06:23:14;;;;;;;;;;;;;;;23.22;35.81;99213.34;5088648;28;19928;-41
2023/04/21 06:25:39;;;;;;;;;;;;;;;22.34;36.78;99211.28;5089514;28;19916;-42
2023/04/21 06:28:05;;;;;;;;;;;;;;;22.59;36.21;99191.09;5089757;28;20059;-42
2023/04/21 06:30:30;;;;;;;;;;;;;;;22.69;36.21;99195.53;5090106;28;20431;-43
2023/04/21 06:32:55;;;;;;;;;;;;;;;22.55;36.18;99202.84;5090350;28;19912;-42
2023/04/21 06:35:20;;;;;;;;;;;;;;;22.30;36.64;99195.91;5090359;28;20304;-42
2023/04/21 06:37:46;;;;;;;;;;;;;;;22.01;36.93;99196.84;5090200;28;19912;-42
2023/04/21 06:40:13;;;;;;;;;;;;;;;22.19;36.33;99192.50;5090390;28;19950;-37
2023/04/21 06:42:38;;;;;;;;;;;;;;;23.10;36.25;99191.34;5090430;28;19926;-42
2023/04/21 06:45:04;;;;;;;;;;;;;;;23.22;34.92;99192.44;5089948;28;20391;-38
2023/04/21 06:47:29;;;;;;;;;;;;;;;23.19;35.41;99189.56;5090633;28;19941;-37
2023/04/21 06:49:54;;;;;;;;;;;;;;;23.81;33.47;99192.66;5090479;28;19916;-36
2023/04/21 06:52:20;;;;;;;;;;;;;;;23.53;33.94;99191.03;5087262;28;20391;-37
2023/04/21 06:54:45;;;;;;;;;;;;;;;24.03;33.64;99201.16;5091469;28;19916;-37
2023/04/21 06:57:10;;;;;;;;;;;;;;;23.74;33.50;99200.41;5094395;28;20015;-36
2023/04/21 06:59:35;;;;;;;;;;;;;;;22.71;35.52;99206.09;5094380;28;19912;-42
2023/04/21 07:02:01;;;;;;;;;;;;;;;22.33;36.10;99208.84;5094431;28;20337;-37
2023/04/21 07:04:28;;;;;;;;;;;;;;;22.65;35.69;99199.94;5094064;28;19919;-37
2023/04/21 07:06:54;;;;;;;;;;;;;;;22.77;35.10;99205.72;5093977;28;19912;-36
2023/04/21 07:09:20;;;;;;;;;;;;;;;23.35;34.67;99212.56;5093779;28;19966;-37
2023/04/21 07:11:45;;;;;;;;;;;;;;;23.46;34.58;99206.97;5093867;28;19966;-37
2023/04/21 07:14:10;;;;;;;;;;;;;;;23.49;34.12;99211.75;5093980;28;19912;-42
2023/04/21 07:16:36;;;;;;;;;;;;;;;23.22;35.31;99214.16;5093856;28;20292;-41
2023/04/21 07:19:01;;;;;;;;;;;;;;;23.28;34.91;99212.16;5093715;28;20341;-41
2023/04/21 07:21:27;;;;;;;;;;;;;;;23.66;34.42;99217.38;5093597;28;19912;-40
2023/04/21 07:23:52;;;;;;;;;;;;;;;23.15;34.50;99208.34;5091679;28;20094;-40
2023/04/21 07:26:18;;;;;;;;;;;;;;;23.08;35.13;99199.00;5092961;28;20465;-42
2023/04/21 07:28:43;;;;;;;;;;;;;;;23.32;34.83;99193.34;5093255;28;19923;-36
2023/04/21 07:31:09;;;;;;;;;;;;;;;23.84;34.17;99204.84;5093471;28;19935;-36
2023/04/21 07:33:34;;;;;;;;;;;;;;;24.70;33.48;99198.50;5093546;28;20045;-36
2023/04/21 07:35:59;;;;;;;;;;;;;;;25.46;32.31;99203.06;5093106;28;20004;-37
2023/04/21 07:38:25;;;;;;;;;;;;;;;24.61;32.57;99196.84;5093109;28;19963;-36
2023/04/21 07:40:50;;;;;;;;;;;;;;;24.28;33.35;99206.03;5093052;28;19919;-36
2023/04/21 07:43:17;;;;;;;;;;;;;;;24.02;33.44;99197.63;5093225;28;19947;-35
2023/04/21 07:45:42;;;;;;;;;;;;;;;24.36;33.55;99202.56;5093169;28;20000;-36
2023/04/21 07:48:07;;;;;;;;;;;;;;;24.41;33.83;99196.22;5092868;28;19960;-36
2023/04/21 07:50:35;;;;;;;;;;;;;;;24.29;33.88;99195.94;5096734;28;19923;-36
2023/04/21 07:53:00;;;;;;;;;;;;;;;24.75;33.31;99195.69;5091796;28;19922;-36
2023/04/21 07:55:26;;;;;;;;;;;;;;;24.84;32.89;99198.44;5092231;28;19915;-36
2023/04/21 07:57:51;;;;;;;;;;;;;;;24.28;33.53;99191.63;5093513;28;19969;-36
2023/04/21 08:00:16;;;;;;;;;;;;;;;25.04;32.92;99201.75;5093025;28;20364;-36
2023/04/21 08:02:42;;;;;;;;;;;;;;;25.07;33.03;99193.75;5091930;28;19946;-36
2023/04/21 08:05:07;;;;;;;;;;;;;;;24.49;33.09;99209.06;5091786;28;20006;-37
2023/04/21 08:07:32;;;;;;;;;;;;;;;24.60;33.89;99201.50;5091288;28;19912;-36
2023/04/21 08:09:59;;;;;;;;;;;;;;;24.46;33.36;99196.06;5092455;28;19977;-37
2023/04/21 08:12:24;;;;;;;;;;;;;;;24.74;33.37;99187.81;5092690;28;19913;-37
2023/04/21 08:14:49;;;;;;;;;;;;;;;24.65;33.99;99186.97;5092421;28;19912;-37
2023/04/21 08:17:15;;;;;;;;;;;;;;;24.62;32.92;99191.09;5091438;28;20364;-39
2023/04/21 08:19:40;;;;;;;;;;;;;;;24.51;32.96;99185.09;5090459;28;20045;-37
2023/04/21 08:22:06;;;;;;;;;;;;;;;24.81;32.75;99180.03;5091865;28;19912;-36
2023/04/21 08:24:31;;;;;;;;;;;;;;;24.18;33.28;99179.09;5091409;28;19935;-35
2023/04/21 08:26:56;;;;;;;;;;;;;;;24.18;33.35;99176.38;5091088;28;20386;-37
2023/04/21 08:29:22;;;;;;;;;;;;;;;24.84;32.97;99184.81;5091272;28;20356;-36
2023/04/21 08:31:47;;;;;;;;;;;;;;;24.85;32.07;99181.00;5092441;28;20303;-36
2023/04/21 08:34:13;;;;;;;;;;;;;;;24.87;31.40;99178.78;5091966;28;20319;-37
2023/04/21 08:36:38;;;;;;;;;;;;;;;25.03;30.78;99186.53;5091973;28;20398;-36
2023/04/21 08:39:03;;;;;;;;;;;;;;;25.79;29.97;99186.31;5090465;28;19916;-36
2023/04/21 08:41:29;;;;;;;;;;;;;;;25.08;30.98;99184.47;5092267;28;19912;-36
2023/04/21 08:43:54;;;;;;;;;;;;;;;25.58;31.07;99191.56;5091223;28;19970;-37
2023/04/21 08:46:20;;;;;;;;;;;;;;;26.22;30.40;99173.88;5091596;28;19912;-37
2023/04/21 08:48:46;;;;;;;;;;;;;;;25.90;29.72;99181.38;5091732;28;20328;-36
2023/04/21 08:51:13;;;;;;;;;;;;;;;25.78;29.63;99173.81;5107555;28;19911;-36
2023/04/21 08:53:40;;;;;;;;;;;;;;;26.12;29.53;99173.06;5112205;28;19991;-35
2023/04/21 08:56:05;;;;;;;;;;;;;;;26.07;29.33;99177.88;5111745;28;19911;-36
2023/04/21 08:58:31;;;;;;;;;;;;;;;25.32;29.87;99175.97;5111905;28;19911;-36
2023/04/21 09:00:57;;;;;;;;;;;;;;;24.68;31.45;99168.09;5112036;28;19918;-37
2023/04/21 09:03:23;;;;;;;;;;;;;;;25.64;29.80;99176.66;5111790;28;19911;-37
2023/04/21 09:05:58;;;;;;;;;;;;;;;26.77;28.39;99166.91;5096278;28;20002;-36
2023/04/21 09:08:27;;;;;;;;;;;;;;;26.29;28.07;99169.53;5091383;28;20061;-38
2023/04/21 09:10:53;;;;;;;;;;;;;;;26.55;28.65;99167.91;5091392;28;19918;-36
2023/04/21 09:13:19;;;;;;;;;;;;;;;26.25;28.70;99160.38;5090096;28;19999;-36
2023/04/21 09:15:45;;;;;;;;;;;;;;;26.48;28.40;99152.00;5091570;28;19919;-37
2023/04/21 09:18:15;;;;;;;;;;;;;;;27.32;28.02;99140.69;5091219;28;20358;-36
2023/04/21 09:20:40;;;;;;;;;;;;;;;27.11;27.33;99142.22;5092088;28;20383;-37
2023/04/21 09:23:06;;;;;;;;;;;;;;;26.18;28.72;99143.72;5091615;28;19994;-37
2023/04/21 09:25:32;;;;;;;;;;;;;;;26.20;28.64;99148.84;5091028;28;19923;-41
2023/04/21 09:27:59;;;;;;;;;;;;;;;27.13;27.68;99122.78;5090148;28;20387;-42
2023/04/21 09:30:24;;;;;;;;;;;;;;;27.62;27.14;99131.34;5091154;28;20336;-40
2023/04/21 09:32:50;;;;;;;;;;;;;;;27.77;26.95;99131.91;5091496;28;19954;-42
2023/04/21 09:35:15;;;;;;;;;;;;;;;27.67;27.15;99125.69;5089552;28;20299;-42
2023/04/21 09:37:42;;;;;;;;;;;;;;;27.33;26.74;99118.53;5090321;28;20007;-41
2023/04/21 09:40:11;;;;;;;;;;;;;;;27.93;27.31;99123.91;5090920;28;19912;-41
2023/04/21 09:42:36;;;;;;;;;;;;;;;27.42;27.26;99122.00;5089060;28;19968;-41
2023/04/21 09:45:03;;;;;;;;;;;;;;;26.73;27.61;99120.34;5090657;28;20329;-41
2023/04/21 09:47:29;;;;;;;;;;;;;;;26.36;27.93;99114.50;5090729;28;20407;-41
2023/04/21 09:49:56;;;;;;;;;;;;;;;27.05;27.50;99109.97;5090456;28;19917;-40
2023/04/21 09:52:23;;;;;;;;;;;;;;;27.35;27.33;99112.72;5090797;28;20128;-41
2023/04/21 09:54:50;;;;;;;;;;;;;;;27.20;27.72;99112.13;5090677;28;19960;-41
2023/04/21 09:57:20;;;;;;;;;;;;;;;27.92;26.42;99098.53;5090755;28;19934;-41
2023/04/21 09:59:46;;;;;;;;;;;;;;;27.79;26.51;99100.34;5090563;28;19912;-41
2023/04/21 10:02:12;;;;;;;;;;;;;;;26.39;27.78;99104.84;5090473;28;20383;-42
2023/04/21 10:04:39;;;;;;;;;;;;;;;26.43;27.57;99105.84;5090777;28;19969;-41
2023/04/21 10:07:05;;;;;;;;;;;;;;;26.27;28.06;99100.06;5090466;28;19938;-42
2023/04/21 10:09:34;;;;;;;;;;;;;;;26.57;27.73;99100.19;5090232;28;19917;-41
2023/04/21 10:12:01;;;;;;;;;;;;;;;26.97;27.44;99097.97;5090673;28;20415;-37
2023/04/21 10:14:27;;;;;;;;;;;;;;;27.67;25.86;99095.63;5090114;28;19912;-35
2023/04/21 10:17:05;;;;;;;;;;;;;;;27.78;25.07;99087.03;5090446;28;20042;-35
2023/04/21 10:19:35;;;;;;;;;;;;;;;27.61;26.17;99085.25;5090393;28;19916;-36
2023/04/21 10:22:00;;;;;;;;;;;;;;;28.11;25.55;99089.03;5090364;28;19961;-37
2023/04/21 10:24:29;;;;;;;;;;;;;;;27.77;26.11;99080.75;5090653;28;19916;-37
2023/04/21 10:26:58;;;;;;;;;;;;;;;28.34;24.94;99081.25;5090488;28;19986;-37
2023/04/21 10:29:33;;;;;;;;;;;;;;;27.74;25.44;99073.25;5089944;28;20362;-36
2023/04/21 10:31:58;;;;;;;;;;;;;;;28.20;25.76;99076.06;5094507;28;20080;-37
2023/04/21 10:34:24;;;;;;;;;;;;;;;28.78;24.29;99076.88;5093702;28;20399;-43
2023/04/21 10:36:55;;;;;;;;;;;;;;;28.62;24.31;99075.97;5094260;28;20307;-41
2023/04/21 10:39:43;;;;;;;;;;;;;;;27.77;25.16;99069.03;5094549;28;19912;-41
2023/04/21 10:42:12;;;;;;;;;;;;;;;27.95;24.91;99065.06;5087744;28;20475;-41
2023/04/21 10:44:40;;;;;;;;;;;;;;;27.42;25.60;99072.03;5094043;28;19919;-36
2023/04/21 10:47:06;;;;;;;;;;;;;;;26.48;26.07;99054.63;5094125;28;19912;-36
2023/04/21 10:49:36;;;;;;;;;;;;;;;27.24;25.70;99074.03;5094181;28;20014;-41
2023/04/21 10:52:02;;;;;;;;;;;;;;;27.40;25.55;99066.91;5094615;28;19912;-42
2023/04/21 10:54:28;;;;;;;;;;;;;;;27.90;24.95;99054.31;5094263;28;19923;-42
2023/04/21 10:56:54;;;;;;;;;;;;;;;27.71;24.63;99060.25;5094192;28;19959;-41
2023/04/21 10:59:19;;;;;;;;;;;;;;;27.61;24.74;99069.66;5094107;28;19924;-36
2023/04/21 11:01:44;;;;;;;;;;;;;;;28.25;23.54;99071.19;5093859;28;19916;-36
2023/04/21 11:04:14;;;;;;;;;;;;;;;27.58;24.55;99075.75;5093855;28;19942;-36
2023/04/21 11:06:39;;;;;;;;;;;;;;;27.40;24.12;99083.28;5094103;28;20346;-36
2023/04/21 11:09:05;;;;;;;;;;;;;;;27.24;24.84;99074.03;5093927;28;19916;-36
2023/04/21 11:11:30;;;;;;;;;;;;;;;25.60;26.81;99074.13;5093541;28;20357;-37
2023/04/21 11:13:58;;;;;;;;;;;;;;;24.83;28.14;99070.84;5094268;28;20006;-37
2023/04/21 11:16:24;;;;;;;;;;;;;;;24.35;29.15;99062.31;5093726;28;19912;-37
2023/04/21 11:18:50;;;;;;;;;;;;;;;24.93;28.22;99067.88;5093588;28;19923;-37
2023/04/21 11:21:17;;;;;;;;;;;;;;;25.01;28.74;99067.09;5093784;28;19919;-37
2023/04/21 11:23:49;;;;;;;;;;;;;;;25.56;27.93;99069.28;5093487;28;20061;-37
2023/04/21 11:26:15;;;;;;;;;;;;;;;25.42;28.07;99078.72;5093195;28;19924;-38
2023/04/21 11:28:40;;;;;;;;;;;;;;;25.32;28.15;99069.78;5093661;28;20045;-36
2023/04/21 11:31:06;;;;;;;;;;;;;;;25.20;27.83;99068.75;5093446;28;19912;-37
2023/04/21 11:33:35;;;;;;;;;;;;;;;25.38;27.69;99066.88;5093439;28;19916;-37
2023/04/21 11:36:02;;;;;;;;;;;;;;;23.58;30.55;99039.69;5093245;28;19923;-38
2023/04/21 11:38:35;;;;;;;;;;;;;;;23.47;31.16;99067.38;5093416;28;20395;-36
2023/04/21 11:41:00;;;;;;;;;;;;;;;23.57;30.21;99078.81;5092721;28;20280;-38
2023/04/21 11:43:26;;;;;;;;;;;;;;;24.00;30.30;99064.78;5092647;28;20372;-37
2023/04/21 11:45:51;;;;;;;;;;;;;;;24.44;29.48;99070.50;5093051;28;19919;-37
2023/04/21 11:48:18;;;;;;;;;;;;;;;24.16;29.38;99070.66;5092531;28;20290;-36
2023/04/21 11:50:47;;;;;;;;;;;;;;;24.74;29.94;99079.78;5092872;28;19912;-36
2023/04/21 11:53:13;;;;;;;;;;;;;;;24.81;30.52;99073.09;5093386;28;19916;-35
2023/04/21 11:55:41;;;;;;;;;;;;;;;24.76;29.18;99066.69;5093355;28;19919;-37
2023/04/21 11:58:06;;;;;;;;;;;;;;;25.40;29.02;99070.06;5093058;28;19912;-37
2023/04/21 12:00:32;;;;;;;;;;;;;;;26.26;29.26;99069.28;5092892;28;19961;-38
2023/04/21 12:02:57;;;;;;;;;;;;;;;26.74;28.24;99059.22;5093165;28;20375;-35
2023/04/21 12:05:23;;;;;;;;;;;;;;;26.31;27.27;99065.56;5093561;28;19961;-36
2023/04/21 12:07:50;;;;;;;;;;;;;;;26.78;27.11;99065.59;5093205;28;19946;-36
2023/04/21 12:10:17;;;;;;;;;;;;;;;26.98;26.28;99064.09;5092509;28;19972;-36
2023/04/21 12:12:43;;;;;;;;;;;;;;;27.60;26.04;99061.78;5092557;28;20319;-36
2023/04/21 12:15:09;;;;;;;;;;;;;;;28.17;25.41;99066.59;5092709;28;20344;-37
2023/04/21 12:17:44;;;;;;;;;;;;;;;28.42;24.27;99055.72;5092552;28;20404;-37
2023/04/21 12:20:09;;;;;;;;;;;;;;;27.74;26.05;99053.28;5092376;28;20465;-35
2023/04/21 12:22:35;;;;;;;;;;;;;;;27.41;25.69;99049.38;5092055;28;20002;-37
2023/04/21 12:25:00;;;;;;;;;;;;;;;27.38;25.29;99049.22;5092369;28;19912;-36
2023/04/21 12:27:26;;;;;;;;;;;;;;;27.82;25.70;99047.75;5091991;28;19930;-36
2023/04/21 12:29:51;;;;;;;;;;;;;;;27.03;27.05;99052.16;5091788;28;19916;-36
2023/04/21 12:32:16;;;;;;;;;;;;;;;26.87;26.65;99046.47;5092406;28;20011;-36
2023/04/21 12:34:42;;;;;;;;;;;;;;;26.95;26.92;99053.81;5092478;28;19919;-35
2023/04/21 12:37:07;;;;;;;;;;;;;;;25.50;28.02;99056.16;5092447;28;20324;-37
2023/04/21 12:39:33;;;;;;;;;;;;;;;25.59;27.73;99051.53;5092608;28;19969;-36
2023/04/21 12:41:58;;;;;;;;;;;;;;;25.05;27.37;99056.38;5092302;28;20003;-36